sensor_id;sensor_type;location;lat;lon;timestamp;pressure;altitude;pressure_sealevel;temperature;humidity
67434;BME280;54305;47.950;6.572;2022-08-02T00:02:08;94650.63;;;16.75;78.61
67434;BME280;54305;47.950;6.572;2022-08-02T00:04:34;94659.88;;;16.71;78.54
67434;BME280;54305;47.950;6.572;2022-08-02T00:06:59;94643.63;;;16.61;78.77
67434;BME280;54305;47.950;6.572;2022-08-02T00:09:24;94654.16;;;16.61;78.62
67434;BME280;54305;47.950;6.572;2022-08-02T00:11:50;94659.47;;;16.67;78.95
67434;BME280;54305;47.950;6.572;2022-08-02T00:14:15;94652.56;;;16.66;78.56
67434;BME280;54305;47.950;6.572;2022-08-02T00:16:40;94653.19;;;16.68;78.01
67434;BME280;54305;47.950;6.572;2022-08-02T00:19:06;94648.97;;;16.74;77.41
67434;BME280;54305;47.950;6.572;2022-08-02T00:21:31;94645.59;;;16.80;76.95
67434;BME280;54305;47.950;6.572;2022-08-02T00:23:56;94648.41;;;16.51;79.17
67434;BME280;54305;47.950;6.572;2022-08-02T00:26:21;94655.50;;;16.36;80.81
67434;BME280;54305;47.950;6.572;2022-08-02T00:28:47;94657.88;;;16.31;80.37
67434;BME280;54305;47.950;6.572;2022-08-02T00:31:12;94654.88;;;16.13;81.61
67434;BME280;54305;47.950;6.572;2022-08-02T00:33:37;94652.28;;;15.98;82.34
67434;BME280;54305;47.950;6.572;2022-08-02T00:36:03;94654.47;;;15.95;82.90
67434;BME280;54305;47.950;6.572;2022-08-02T00:38:28;94657.09;;;15.95;79.54
67434;BME280;54305;47.950;6.572;2022-08-02T00:40:54;94663.44;;;15.86;79.35
67434;BME280;54305;47.950;6.572;2022-08-02T00:43:19;94661.66;;;15.72;80.91
67434;BME280;54305;47.950;6.572;2022-08-02T00:45:44;94660.34;;;15.61;82.20
67434;BME280;54305;47.950;6.572;2022-08-02T00:48:12;94653.00;;;15.57;85.83
67434;BME280;54305;47.950;6.572;2022-08-02T00:50:38;94654.28;;;15.61;84.48
67434;BME280;54305;47.950;6.572;2022-08-02T00:53:04;94655.91;;;15.62;84.02
67434;BME280;54305;47.950;6.572;2022-08-02T00:55:30;94653.19;;;15.55;83.39
67434;BME280;54305;47.950;6.572;2022-08-02T00:57:55;94653.91;;;15.64;79.90
67434;BME280;54305;47.950;6.572;2022-08-02T01:00:20;94655.69;;;15.78;78.86
67434;BME280;54305;47.950;6.572;2022-08-02T01:02:46;94647.91;;;15.70;80.33
67434;BME280;54305;47.950;6.572;2022-08-02T01:05:12;94648.59;;;15.57;79.97
67434;BME280;54305;47.950;6.572;2022-08-02T01:07:37;94645.31;;;15.55;78.67
67434;BME280;54305;47.950;6.572;2022-08-02T01:10:03;94636.72;;;15.47;82.94
67434;BME280;54305;47.950;6.572;2022-08-02T01:12:28;94639.47;;;15.39;83.51
67434;BME280;54305;47.950;6.572;2022-08-02T01:14:58;94638.22;;;15.35;85.69
67434;BME280;54305;47.950;6.572;2022-08-02T01:18:25;94640.09;;;15.41;86.15
67434;BME280;54305;47.950;6.572;2022-08-02T01:30:28;94623.53;;;15.26;82.93
67434;BME280;54305;47.950;6.572;2022-08-02T01:32:54;94621.72;;;15.41;80.57
67434;BME280;54305;47.950;6.572;2022-08-02T01:35:23;94631.47;;;15.47;80.72
67434;BME280;54305;47.950;6.572;2022-08-02T01:37:55;94623.72;;;15.39;83.31
67434;BME280;54305;47.950;6.572;2022-08-02T01:40:28;94635.09;;;15.46;85.49
67434;BME280;54305;47.950;6.572;2022-08-02T01:42:55;94628.78;;;15.40;84.92
67434;BME280;54305;47.950;6.572;2022-08-02T01:45:22;94634.91;;;15.33;86.71
67434;BME280;54305;47.950;6.572;2022-08-02T01:47:48;94633.22;;;15.11;86.31
67434;BME280;54305;47.950;6.572;2022-08-02T01:50:15;94626.03;;;15.05;85.84
67434;BME280;54305;47.950;6.572;2022-08-02T01:52:44;94630.19;;;15.14;85.67
67434;BME280;54305;47.950;6.572;2022-08-02T01:58:03;94631.13;;;14.92;84.94
67434;BME280;54305;47.950;6.572;2022-08-02T02:00:31;94636.47;;;14.98;82.63
67434;BME280;54305;47.950;6.572;2022-08-02T02:02:57;94624.88;;;15.07;82.54
67434;BME280;54305;47.950;6.572;2022-08-02T02:05:23;94623.34;;;15.13;84.37
67434;BME280;54305;47.950;6.572;2022-08-02T02:07:50;94625.75;;;15.00;84.37
67434;BME280;54305;47.950;6.572;2022-08-02T02:10:19;94623.25;;;15.06;84.60
67434;BME280;54305;47.950;6.572;2022-08-02T02:12:47;94617.47;;;15.11;83.62
67434;BME280;54305;47.950;6.572;2022-08-02T02:15:13;94618.47;;;15.10;83.39
67434;BME280;54305;47.950;6.572;2022-08-02T02:17:42;94620.25;;;14.95;83.67
67434;BME280;54305;47.950;6.572;2022-08-02T02:20:15;94616.81;;;14.80;84.58
67434;BME280;54305;47.950;6.572;2022-08-02T02:22:42;94623.13;;;14.71;86.04
67434;BME280;54305;47.950;6.572;2022-08-02T02:25:07;94616.63;;;14.67;87.99
67434;BME280;54305;47.950;6.572;2022-08-02T02:27:33;94614.28;;;14.72;86.80
67434;BME280;54305;47.950;6.572;2022-08-02T02:30:00;94614.56;;;14.77;88.09
67434;BME280;54305;47.950;6.572;2022-08-02T02:32:26;94609.50;;;14.75;87.65
67434;BME280;54305;47.950;6.572;2022-08-02T02:34:53;94613.91;;;14.75;87.87
67434;BME280;54305;47.950;6.572;2022-08-02T02:37:20;94606.03;;;14.75;86.34
67434;BME280;54305;47.950;6.572;2022-08-02T02:39:47;94603.88;;;14.78;84.12
67434;BME280;54305;47.950;6.572;2022-08-02T02:42:14;94598.38;;;14.88;83.61
67434;BME280;54305;47.950;6.572;2022-08-02T02:44:40;94607.59;;;14.84;83.43
67434;BME280;54305;47.950;6.572;2022-08-02T02:47:06;94609.94;;;14.79;84.42
67434;BME280;54305;47.950;6.572;2022-08-02T02:49:33;94611.28;;;14.75;83.79
67434;BME280;54305;47.950;6.572;2022-08-02T02:51:59;94618.81;;;14.78;86.33
67434;BME280;54305;47.950;6.572;2022-08-02T02:54:25;94616.81;;;14.80;86.49
67434;BME280;54305;47.950;6.572;2022-08-02T02:56:51;94606.16;;;14.96;87.08
67434;BME280;54305;47.950;6.572;2022-08-02T02:59:17;94613.81;;;14.97;85.51
67434;BME280;54305;47.950;6.572;2022-08-02T03:01:43;94614.56;;;15.06;83.92
67434;BME280;54305;47.950;6.572;2022-08-02T03:04:09;94607.06;;;15.03;83.95
67434;BME280;54305;47.950;6.572;2022-08-02T03:06:35;94615.56;;;14.90;84.73
67434;BME280;54305;47.950;6.572;2022-08-02T03:09:01;94609.59;;;14.82;83.55
67434;BME280;54305;47.950;6.572;2022-08-02T03:11:26;94614.84;;;14.82;82.77
67434;BME280;54305;47.950;6.572;2022-08-02T03:14:03;94611.66;;;14.86;82.60
67434;BME280;54305;47.950;6.572;2022-08-02T03:16:29;94602.91;;;14.94;81.60
67434;BME280;54305;47.950;6.572;2022-08-02T03:18:55;94602.16;;;15.00;81.25
67434;BME280;54305;47.950;6.572;2022-08-02T03:21:20;94599.09;;;14.82;83.54
67434;BME280;54305;47.950;6.572;2022-08-02T03:23:46;94597.09;;;14.84;86.35
67434;BME280;54305;47.950;6.572;2022-08-02T03:26:11;94584.81;;;14.84;86.38
67434;BME280;54305;47.950;6.572;2022-08-02T03:28:36;94587.00;;;14.81;85.33
67434;BME280;54305;47.950;6.572;2022-08-02T03:31:01;94591.06;;;14.83;84.23
67434;BME280;54305;47.950;6.572;2022-08-02T03:33:27;94586.72;;;14.90;82.66
67434;BME280;54305;47.950;6.572;2022-08-02T03:35:54;94585.19;;;14.96;82.38
67434;BME280;54305;47.950;6.572;2022-08-02T03:38:21;94594.03;;;14.95;82.44
67434;BME280;54305;47.950;6.572;2022-08-02T03:40:46;94592.78;;;14.91;83.93
67434;BME280;54305;47.950;6.572;2022-08-02T03:43:12;94586.81;;;14.97;84.11
67434;BME280;54305;47.950;6.572;2022-08-02T03:45:38;94584.44;;;15.02;82.51
67434;BME280;54305;47.950;6.572;2022-08-02T03:48:06;94580.47;;;15.06;82.66
67434;BME280;54305;47.950;6.572;2022-08-02T03:50:32;94578.66;;;15.06;84.25
67434;BME280;54305;47.950;6.572;2022-08-02T03:52:58;94584.81;;;14.99;84.08
67434;BME280;54305;47.950;6.572;2022-08-02T03:55:23;94581.66;;;15.03;85.33
67434;BME280;54305;47.950;6.572;2022-08-02T03:57:49;94586.16;;;15.09;85.22
67434;BME280;54305;47.950;6.572;2022-08-02T04:00:18;94585.06;;;15.18;84.61
67434;BME280;54305;47.950;6.572;2022-08-02T04:02:44;94595.28;;;15.28;85.39
67434;BME280;54305;47.950;6.572;2022-08-02T04:05:09;94590.66;;;15.44;83.01
67434;BME280;54305;47.950;6.572;2022-08-02T04:07:35;94582.94;;;15.57;81.28
67434;BME280;54305;47.950;6.572;2022-08-02T04:10:00;94594.06;;;15.59;82.30
67434;BME280;54305;47.950;6.572;2022-08-02T04:12:25;94583.88;;;15.50;82.90
67434;BME280;54305;47.950;6.572;2022-08-02T04:14:50;94593.47;;;15.43;82.23
67434;BME280;54305;47.950;6.572;2022-08-02T04:17:16;94594.84;;;15.39;84.12
67434;BME280;54305;47.950;6.572;2022-08-02T04:19:50;94599.47;;;15.37;82.61
67434;BME280;54305;47.950;6.572;2022-08-02T04:22:36;94598.91;;;15.27;84.61
67434;BME280;54305;47.950;6.572;2022-08-02T04:25:04;94596.91;;;15.29;82.87
67434;BME280;54305;47.950;6.572;2022-08-02T04:27:30;94600.16;;;15.31;85.66
67434;BME280;54305;47.950;6.572;2022-08-02T04:29:56;94597.84;;;15.36;84.49
67434;BME280;54305;47.950;6.572;2022-08-02T04:32:23;94601.06;;;15.38;83.38
67434;BME280;54305;47.950;6.572;2022-08-02T04:34:48;94600.16;;;15.31;84.62
67434;BME280;54305;47.950;6.572;2022-08-02T04:37:14;94596.84;;;15.08;86.87
67434;BME280;54305;47.950;6.572;2022-08-02T04:39:39;94596.22;;;15.06;86.72
67434;BME280;54305;47.950;6.572;2022-08-02T04:42:05;94595.84;;;15.09;85.40
67434;BME280;54305;47.950;6.572;2022-08-02T04:44:30;94598.72;;;15.14;84.42
67434;BME280;54305;47.950;6.572;2022-08-02T04:46:55;94598.38;;;15.17;84.43
67434;BME280;54305;47.950;6.572;2022-08-02T04:49:23;94597.09;;;15.13;86.21
67434;BME280;54305;47.950;6.572;2022-08-02T04:51:48;94599.09;;;15.11;85.76
67434;BME280;54305;47.950;6.572;2022-08-02T04:54:14;94599.63;;;15.21;87.26
67434;BME280;54305;47.950;6.572;2022-08-02T04:56:39;94606.69;;;15.20;86.79
67434;BME280;54305;47.950;6.572;2022-08-02T04:59:05;94607.03;;;15.32;84.10
67434;BME280;54305;47.950;6.572;2022-08-02T05:01:31;94610.31;;;15.34;83.08
67434;BME280;54305;47.950;6.572;2022-08-02T05:03:56;94601.47;;;15.35;84.30
67434;BME280;54305;47.950;6.572;2022-08-02T05:06:21;94612.09;;;15.48;84.07
67434;BME280;54305;47.950;6.572;2022-08-02T05:08:47;94617.50;;;15.61;83.70
67434;BME280;54305;47.950;6.572;2022-08-02T05:11:12;94599.75;;;15.63;86.05
67434;BME280;54305;47.950;6.572;2022-08-02T05:13:39;94610.41;;;15.76;85.88
67434;BME280;54305;47.950;6.572;2022-08-02T05:16:04;94612.09;;;15.83;84.61
67434;BME280;54305;47.950;6.572;2022-08-02T05:18:29;94605.31;;;15.89;84.55
67434;BME280;54305;47.950;6.572;2022-08-02T05:20:55;94608.19;;;15.94;84.06
67434;BME280;54305;47.950;6.572;2022-08-02T05:23:20;94606.81;;;15.98;83.68
67434;BME280;54305;47.950;6.572;2022-08-02T05:25:46;94605.06;;;16.05;83.22
67434;BME280;54305;47.950;6.572;2022-08-02T05:28:11;94598.69;;;16.14;82.63
67434;BME280;54305;47.950;6.572;2022-08-02T05:30:36;94605.06;;;16.26;82.53
67434;BME280;54305;47.950;6.572;2022-08-02T05:33:02;94616.34;;;16.41;84.52
67434;BME280;54305;47.950;6.572;2022-08-02T05:35:28;94617.22;;;16.48;84.15
67434;BME280;54305;47.950;6.572;2022-08-02T05:37:54;94621.75;;;16.60;83.68
67434;BME280;54305;47.950;6.572;2022-08-02T05:40:19;94621.03;;;16.73;82.29
67434;BME280;54305;47.950;6.572;2022-08-02T05:42:44;94611.88;;;16.90;80.96
67434;BME280;54305;47.950;6.572;2022-08-02T05:45:10;94611.19;;;17.09;79.91
67434;BME280;54305;47.950;6.572;2022-08-02T05:47:36;94610.03;;;17.24;80.14
67434;BME280;54305;47.950;6.572;2022-08-02T05:50:01;94614.59;;;17.37;80.06
67434;BME280;54305;47.950;6.572;2022-08-02T05:52:32;94613.03;;;17.49;80.48
67434;BME280;54305;47.950;6.572;2022-08-02T05:55:04;94616.34;;;17.64;80.51
67434;BME280;54305;47.950;6.572;2022-08-02T06:04:58;94603.56;;;18.47;76.49
67434;BME280;54305;47.950;6.572;2022-08-02T06:07:27;94604.38;;;18.73;75.22
67434;BME280;54305;47.950;6.572;2022-08-02T06:09:53;94612.94;;;18.69;75.33
67434;BME280;54305;47.950;6.572;2022-08-02T06:12:20;94606.44;;;18.71;75.62
67434;BME280;54305;47.950;6.572;2022-08-02T06:14:49;94608.44;;;18.89;74.20
67434;BME280;54305;47.950;6.572;2022-08-02T06:17:15;94601.94;;;19.11;73.41
67434;BME280;54305;47.950;6.572;2022-08-02T06:19:40;94605.94;;;19.33;72.84
67434;BME280;54305;47.950;6.572;2022-08-02T06:22:06;94607.53;;;19.47;71.82
67434;BME280;54305;47.950;6.572;2022-08-02T06:24:43;94610.56;;;19.57;71.83
67434;BME280;54305;47.950;6.572;2022-08-02T06:27:12;94601.31;;;19.79;70.67
67434;BME280;54305;47.950;6.572;2022-08-02T06:29:38;94605.25;;;20.01;70.56
67434;BME280;54305;47.950;6.572;2022-08-02T06:32:04;94610.06;;;20.17;69.25
67434;BME280;54305;47.950;6.572;2022-08-02T06:34:31;94613.84;;;20.34;69.58
67434;BME280;54305;47.950;6.572;2022-08-02T06:37:05;94619.22;;;20.52;68.07
67434;BME280;54305;47.950;6.572;2022-08-02T06:39:42;94619.97;;;20.59;67.86
67434;BME280;54305;47.950;6.572;2022-08-02T06:42:10;94623.56;;;20.71;67.62
67434;BME280;54305;47.950;6.572;2022-08-02T06:44:36;94613.47;;;20.86;67.00
67434;BME280;54305;47.950;6.572;2022-08-02T06:47:02;94612.53;;;20.74;65.54
67434;BME280;54305;47.950;6.572;2022-08-02T06:49:28;94617.63;;;20.51;66.48
67434;BME280;54305;47.950;6.572;2022-08-02T06:51:53;94623.25;;;20.61;66.74
67434;BME280;54305;47.950;6.572;2022-08-02T06:54:18;94619.91;;;20.41;66.32
67434;BME280;54305;47.950;6.572;2022-08-02T06:56:45;94618.03;;;20.48;65.88
67434;BME280;54305;47.950;6.572;2022-08-02T06:59:11;94615.88;;;20.63;64.22
67434;BME280;54305;47.950;6.572;2022-08-02T07:01:36;94617.28;;;20.66;62.33
67434;BME280;54305;47.950;6.572;2022-08-02T07:04:02;94628.88;;;20.71;62.63
67434;BME280;54305;47.950;6.572;2022-08-02T07:06:28;94607.88;;;20.45;62.48
67434;BME280;54305;47.950;6.572;2022-08-02T07:08:53;94619.91;;;20.41;64.21
67434;BME280;54305;47.950;6.572;2022-08-02T07:11:18;94615.94;;;20.57;63.67
67434;BME280;54305;47.950;6.572;2022-08-02T07:13:44;94619.91;;;20.72;63.64
67434;BME280;54305;47.950;6.572;2022-08-02T07:16:09;94620.97;;;20.89;63.92
67434;BME280;54305;47.950;6.572;2022-08-02T07:18:34;94633.72;;;20.74;62.14
67434;BME280;54305;47.950;6.572;2022-08-02T07:21:00;94620.44;;;20.81;60.56
67434;BME280;54305;47.950;6.572;2022-08-02T07:23:25;94622.63;;;20.90;61.08
67434;BME280;54305;47.950;6.572;2022-08-02T07:25:51;94623.28;;;20.79;59.22
67434;BME280;54305;47.950;6.572;2022-08-02T07:28:16;94628.38;;;20.56;60.99
67434;BME280;54305;47.950;6.572;2022-08-02T07:30:41;94623.84;;;20.88;62.14
67434;BME280;54305;47.950;6.572;2022-08-02T07:33:07;94630.22;;;21.29;59.99
67434;BME280;54305;47.950;6.572;2022-08-02T07:35:32;94632.59;;;21.55;60.10
67434;BME280;54305;47.950;6.572;2022-08-02T07:37:57;94630.06;;;21.60;57.03
67434;BME280;54305;47.950;6.572;2022-08-02T07:40:23;94633.13;;;21.82;58.58
67434;BME280;54305;47.950;6.572;2022-08-02T07:42:50;94631.69;;;21.61;58.39
67434;BME280;54305;47.950;6.572;2022-08-02T07:45:17;94633.75;;;21.41;58.11
67434;BME280;54305;47.950;6.572;2022-08-02T07:47:42;94635.81;;;21.57;58.02
67434;BME280;54305;47.950;6.572;2022-08-02T07:50:11;94626.13;;;21.87;57.70
67434;BME280;54305;47.950;6.572;2022-08-02T07:52:37;94630.13;;;21.78;55.95
67434;BME280;54305;47.950;6.572;2022-08-02T07:55:04;94614.97;;;21.97;56.67
67434;BME280;54305;47.950;6.572;2022-08-02T07:57:29;94611.44;;;22.03;56.81
67434;BME280;54305;47.950;6.572;2022-08-02T07:59:55;94600.22;;;22.19;55.73
67434;BME280;54305;47.950;6.572;2022-08-02T08:02:20;94592.78;;;22.39;54.37
67434;BME280;54305;47.950;6.572;2022-08-02T08:04:48;94591.59;;;22.35;54.18
67434;BME280;54305;47.950;6.572;2022-08-02T08:07:13;94608.00;;;22.43;53.12
67434;BME280;54305;47.950;6.572;2022-08-02T08:09:38;94607.78;;;22.74;53.46
67434;BME280;54305;47.950;6.572;2022-08-02T08:12:06;94594.06;;;23.00;52.18
67434;BME280;54305;47.950;6.572;2022-08-02T08:14:31;94590.84;;;22.98;52.00
67434;BME280;54305;47.950;6.572;2022-08-02T08:16:56;94580.06;;;23.16;51.06
67434;BME280;54305;47.950;6.572;2022-08-02T08:19:21;94588.63;;;22.95;52.50
67434;BME280;54305;47.950;6.572;2022-08-02T08:21:47;94594.22;;;23.28;51.07
67434;BME280;54305;47.950;6.572;2022-08-02T08:24:12;94602.03;;;23.00;51.31
67434;BME280;54305;47.950;6.572;2022-08-02T08:26:37;94600.63;;;22.86;50.79
67434;BME280;54305;47.950;6.572;2022-08-02T08:29:04;94602.06;;;23.23;51.24
67434;BME280;54305;47.950;6.572;2022-08-02T08:31:31;94596.50;;;23.13;49.48
67434;BME280;54305;47.950;6.572;2022-08-02T08:33:56;94595.22;;;23.16;50.09
67434;BME280;54305;47.950;6.572;2022-08-02T08:36:21;94592.31;;;23.63;50.21
67434;BME280;54305;47.950;6.572;2022-08-02T08:38:47;94594.22;;;23.79;49.57
67434;BME280;54305;47.950;6.572;2022-08-02T08:41:14;94597.91;;;23.27;50.38
67434;BME280;54305;47.950;6.572;2022-08-02T08:43:40;94602.69;;;23.76;49.31
67434;BME280;54305;47.950;6.572;2022-08-02T08:46:05;94602.53;;;23.20;50.54
67434;BME280;54305;47.950;6.572;2022-08-02T08:48:32;94610.25;;;23.45;50.20
67434;BME280;54305;47.950;6.572;2022-08-02T08:53:27;94605.47;;;23.81;48.75
67434;BME280;54305;47.950;6.572;2022-08-02T08:55:54;94606.22;;;23.42;49.66
67434;BME280;54305;47.950;6.572;2022-08-02T08:58:21;94603.50;;;23.77;49.29
67434;BME280;54305;47.950;6.572;2022-08-02T09:00:47;94599.25;;;24.43;47.05
67434;BME280;54305;47.950;6.572;2022-08-02T09:03:12;94603.53;;;24.72;48.07
67434;BME280;54305;47.950;6.572;2022-08-02T09:05:38;94600.59;;;25.23;46.89
67434;BME280;54305;47.950;6.572;2022-08-02T09:08:04;94589.56;;;25.69;45.21
67434;BME280;54305;47.950;6.572;2022-08-02T09:15:32;94596.13;;;26.00;43.93
67434;BME280;54305;47.950;6.572;2022-08-02T09:17:58;94594.66;;;24.83;44.70
67434;BME280;54305;47.950;6.572;2022-08-02T09:20:23;94598.28;;;25.10;46.09
67434;BME280;54305;47.950;6.572;2022-08-02T09:23:05;94596.44;;;25.27;44.40
67434;BME280;54305;47.950;6.572;2022-08-02T09:25:30;94596.38;;;25.98;43.79
67434;BME280;54305;47.950;6.572;2022-08-02T09:27:56;94597.41;;;25.97;43.53
67434;BME280;54305;47.950;6.572;2022-08-02T09:30:22;94591.44;;;24.81;45.51
67434;BME280;54305;47.950;6.572;2022-08-02T09:32:47;94605.13;;;24.73;45.86
67434;BME280;54305;47.950;6.572;2022-08-02T09:35:29;94599.16;;;24.10;46.58
67434;BME280;54305;47.950;6.572;2022-08-02T09:37:59;94588.78;;;24.53;45.99
67434;BME280;54305;47.950;6.572;2022-08-02T09:40:35;94600.91;;;24.05;47.02
67434;BME280;54305;47.950;6.572;2022-08-02T09:43:01;94597.34;;;23.99;47.48
67434;BME280;54305;47.950;6.572;2022-08-02T09:45:30;94586.22;;;24.30;47.36
67434;BME280;54305;47.950;6.572;2022-08-02T09:47:58;94581.00;;;24.35;45.96
67434;BME280;54305;47.950;6.572;2022-08-02T09:50:23;94583.66;;;24.96;46.43
67434;BME280;54305;47.950;6.572;2022-08-02T09:52:49;94586.88;;;24.98;44.93
67434;BME280;54305;47.950;6.572;2022-08-02T09:55:14;94584.44;;;25.13;44.60
67434;BME280;54305;47.950;6.572;2022-08-02T09:57:40;94588.19;;;24.96;46.10
67434;BME280;54305;47.950;6.572;2022-08-02T10:00:06;94587.03;;;25.08;44.85
67434;BME280;54305;47.950;6.572;2022-08-02T10:02:34;94588.25;;;24.84;45.06
67434;BME280;54305;47.950;6.572;2022-08-02T10:04:59;94591.06;;;24.05;47.23
67434;BME280;54305;47.950;6.572;2022-08-02T10:07:25;94584.75;;;23.83;47.86
67434;BME280;54305;47.950;6.572;2022-08-02T10:09:51;94581.84;;;24.24;47.86
67434;BME280;54305;47.950;6.572;2022-08-02T10:12:16;94581.16;;;24.45;46.46
67434;BME280;54305;47.950;6.572;2022-08-02T10:14:42;94587.03;;;24.59;46.33
67434;BME280;54305;47.950;6.572;2022-08-02T10:17:09;94578.50;;;24.73;46.15
67434;BME280;54305;47.950;6.572;2022-08-02T10:19:34;94580.19;;;25.12;45.30
67434;BME280;54305;47.950;6.572;2022-08-02T10:22:09;94577.78;;;26.08;44.30
67434;BME280;54305;47.950;6.572;2022-08-02T10:24:36;94582.97;;;25.77;43.81
67434;BME280;54305;47.950;6.572;2022-08-02T10:27:01;94583.97;;;25.49;44.39
67434;BME280;54305;47.950;6.572;2022-08-02T10:29:34;94585.25;;;25.47;43.50
67434;BME280;54305;47.950;6.572;2022-08-02T10:32:07;94570.94;;;26.17;43.07
67434;BME280;54305;47.950;6.572;2022-08-02T10:34:42;94579.84;;;25.85;43.65
67434;BME280;54305;47.950;6.572;2022-08-02T10:37:09;94561.19;;;25.85;43.68
67434;BME280;54305;47.950;6.572;2022-08-02T10:39:42;94564.66;;;26.28;45.33
67434;BME280;54305;47.950;6.572;2022-08-02T10:42:07;94553.56;;;26.99;43.07
67434;BME280;54305;47.950;6.572;2022-08-02T10:44:33;94552.28;;;26.70;42.46
67434;BME280;54305;47.950;6.572;2022-08-02T10:47:21;94555.91;;;26.11;43.27
67434;BME280;54305;47.950;6.572;2022-08-02T10:49:48;94560.75;;;26.14;44.58
67434;BME280;54305;47.950;6.572;2022-08-02T10:52:14;94551.81;;;26.83;43.93
67434;BME280;54305;47.950;6.572;2022-08-02T10:55:02;94548.78;;;27.43;41.07
67434;BME280;54305;47.950;6.572;2022-08-02T10:57:26;94545.66;;;28.12;40.42
67434;BME280;54305;47.950;6.572;2022-08-02T11:00:11;94546.84;;;28.81;38.60
67434;BME280;54305;47.950;6.572;2022-08-02T11:02:46;94537.78;;;29.12;38.24
67434;BME280;54305;47.950;6.572;2022-08-02T11:05:13;94545.50;;;29.44;37.79
67434;BME280;54305;47.950;6.572;2022-08-02T11:13:01;94541.75;;;27.78;39.39
67434;BME280;54305;47.950;6.572;2022-08-02T11:15:28;94541.44;;;27.18;40.20
67434;BME280;54305;47.950;6.572;2022-08-02T11:17:54;94548.88;;;27.16;40.27
67434;BME280;54305;47.950;6.572;2022-08-02T11:20:19;94541.19;;;27.71;39.94
67434;BME280;54305;47.950;6.572;2022-08-02T11:22:47;94535.56;;;27.73;39.12
67434;BME280;54305;47.950;6.572;2022-08-02T11:27:52;94539.16;;;27.05;40.26
67434;BME280;54305;47.950;6.572;2022-08-02T11:30:17;94530.44;;;27.61;39.38
67434;BME280;54305;47.950;6.572;2022-08-02T11:32:43;94530.94;;;28.25;38.60
67434;BME280;54305;47.950;6.572;2022-08-02T11:35:08;94526.47;;;28.85;37.56
67434;BME280;54305;47.950;6.572;2022-08-02T11:37:38;94528.72;;;27.40;38.98
67434;BME280;54305;47.950;6.572;2022-08-02T11:40:05;94527.81;;;27.25;40.56
67434;BME280;54305;47.950;6.572;2022-08-02T11:42:31;94531.97;;;27.06;40.66
67434;BME280;54305;47.950;6.572;2022-08-02T11:44:56;94533.63;;;26.80;40.63
67434;BME280;54305;47.950;6.572;2022-08-02T11:47:22;94525.31;;;26.19;41.51
67434;BME280;54305;47.950;6.572;2022-08-02T11:49:47;94535.75;;;26.25;41.96
67434;BME280;54305;47.950;6.572;2022-08-02T11:52:13;94525.06;;;26.78;42.31
67434;BME280;54305;47.950;6.572;2022-08-02T11:54:39;94521.25;;;27.99;41.06
67434;BME280;54305;47.950;6.572;2022-08-02T11:59:35;94521.00;;;28.05;38.29
67434;BME280;54305;47.950;6.572;2022-08-02T12:02:02;94525.59;;;28.35;37.52
67434;BME280;54305;47.950;6.572;2022-08-02T12:04:28;94524.78;;;28.19;37.86
67434;BME280;54305;47.950;6.572;2022-08-02T12:06:54;94521.81;;;28.16;38.68
67434;BME280;54305;47.950;6.572;2022-08-02T12:09:20;94526.19;;;26.87;39.48
67434;BME280;54305;47.950;6.572;2022-08-02T12:11:47;94519.34;;;27.38;39.17
67434;BME280;54305;47.950;6.572;2022-08-02T12:14:13;94521.47;;;27.36;40.06
67434;BME280;54305;47.950;6.572;2022-08-02T12:16:41;94510.81;;;28.02;38.73
67434;BME280;54305;47.950;6.572;2022-08-02T12:19:25;94513.56;;;28.37;37.13
67434;BME280;54305;47.950;6.572;2022-08-02T12:24:50;94501.78;;;30.07;35.03
67434;BME280;54305;47.950;6.572;2022-08-02T12:30:04;94508.38;;;30.34;34.10
67434;BME280;54305;47.950;6.572;2022-08-02T12:32:29;94511.09;;;30.29;34.30
67434;BME280;54305;47.950;6.572;2022-08-02T12:37:27;94516.69;;;29.79;35.33
67434;BME280;54305;47.950;6.572;2022-08-02T12:39:53;94510.41;;;28.75;35.91
67434;BME280;54305;47.950;6.572;2022-08-02T12:42:18;94514.16;;;28.44;37.11
67434;BME280;54305;47.950;6.572;2022-08-02T12:44:53;94517.84;;;29.43;37.83
67434;BME280;54305;47.950;6.572;2022-08-02T12:47:19;94501.72;;;30.60;34.92
67434;BME280;54305;47.950;6.572;2022-08-02T12:49:46;94499.53;;;30.72;32.55
67434;BME280;54305;47.950;6.572;2022-08-02T12:52:18;94499.13;;;31.69;32.76
67434;BME280;54305;47.950;6.572;2022-08-02T12:54:43;94497.84;;;32.33;32.29
67434;BME280;54305;47.950;6.572;2022-08-02T12:57:12;94497.41;;;31.31;30.50
67434;BME280;54305;47.950;6.572;2022-08-02T12:59:38;94499.44;;;30.82;31.87
67434;BME280;54305;47.950;6.572;2022-08-02T13:02:05;94490.97;;;30.60;32.08
67434;BME280;54305;47.950;6.572;2022-08-02T13:04:30;94494.81;;;30.06;32.04
67434;BME280;54305;47.950;6.572;2022-08-02T13:06:56;94488.63;;;30.05;32.95
67434;BME280;54305;47.950;6.572;2022-08-02T13:09:21;94490.81;;;30.47;32.39
67434;BME280;54305;47.950;6.572;2022-08-02T13:11:47;94474.28;;;30.63;31.63
67434;BME280;54305;47.950;6.572;2022-08-02T13:14:12;94485.16;;;28.91;33.50
67434;BME280;54305;47.950;6.572;2022-08-02T13:16:38;94480.56;;;29.32;33.86
67434;BME280;54305;47.950;6.572;2022-08-02T13:19:04;94474.78;;;30.70;31.40
67434;BME280;54305;47.950;6.572;2022-08-02T13:21:30;94471.69;;;30.53;30.86
67434;BME280;54305;47.950;6.572;2022-08-02T13:24:05;94473.09;;;29.92;30.80
67434;BME280;54305;47.950;6.572;2022-08-02T13:26:49;94482.44;;;29.41;31.89
67434;BME280;54305;47.950;6.572;2022-08-02T13:29:14;94482.94;;;29.48;32.42
67434;BME280;54305;47.950;6.572;2022-08-02T13:31:43;94475.13;;;29.57;31.65
67434;BME280;54305;47.950;6.572;2022-08-02T13:34:08;94478.69;;;30.06;32.45
67434;BME280;54305;47.950;6.572;2022-08-02T13:36:34;94468.59;;;29.83;31.50
67434;BME280;54305;47.950;6.572;2022-08-02T13:39:00;94469.88;;;29.17;32.07
67434;BME280;54305;47.950;6.572;2022-08-02T13:41:26;94464.88;;;30.27;30.61
67434;BME280;54305;47.950;6.572;2022-08-02T13:43:51;94463.47;;;29.86;30.54
67434;BME280;54305;47.950;6.572;2022-08-02T13:46:17;94460.19;;;29.99;30.31